createdAt,value
2023-03-05T00:00:34.649Z,97286.81
2023-03-05T00:03:01.254Z,97292.00
2023-03-05T00:05:27.843Z,97294.97
2023-03-05T00:07:54.405Z,97294.19
2023-03-05T00:10:20.999Z,97297.75
2023-03-05T00:12:47.621Z,97309.44
2023-03-05T00:15:14.235Z,97300.59
2023-03-05T00:17:40.953Z,97305.53
2023-03-05T00:20:07.501Z,97304.47
2023-03-05T00:22:34.095Z,97299.69
2023-03-05T00:25:00.664Z,97300.94
2023-03-05T00:27:27.254Z,97303.88
2023-03-05T00:29:53.822Z,97298.78
2023-03-05T00:32:20.416Z,97293.28
2023-03-05T00:34:47.076Z,97284.31
2023-03-05T00:37:13.853Z,97285.75
2023-03-05T00:39:40.454Z,97290.31
2023-03-05T00:42:07.046Z,97298.13
2023-03-05T00:44:33.625Z,97290.47
2023-03-05T00:47:00.230Z,97287.81
2023-03-05T00:49:26.786Z,97283.28
2023-03-05T00:51:53.407Z,97285.44
2023-03-05T00:54:19.963Z,97281.25
2023-03-05T00:56:48.713Z,97280.38
2023-03-05T00:59:15.286Z,97284.53
2023-03-05T01:01:42.095Z,97283.09
2023-03-05T01:04:08.689Z,97277.38
2023-03-05T01:06:35.401Z,97272.31
2023-03-05T01:09:01.975Z,97273.53
2023-03-05T01:11:28.588Z,97277.91
2023-03-05T01:13:55.221Z,97280.81
2023-03-05T01:16:21.846Z,97269.19
2023-03-05T01:18:48.519Z,97270.91
2023-03-05T01:21:15.105Z,97272.34
2023-03-05T01:23:41.704Z,97279.75
2023-03-05T01:26:08.264Z,97274.53
2023-03-05T01:28:34.815Z,97274.78
2023-03-05T01:31:01.450Z,97278.34
2023-03-05T01:33:28.044Z,97273.81
2023-03-05T01:35:54.636Z,97282.97
2023-03-05T01:38:21.253Z,97280.78
2023-03-05T01:40:47.867Z,97287.03
2023-03-05T01:43:14.465Z,97282.22
2023-03-05T01:45:41.352Z,97286.00
2023-03-05T01:48:07.943Z,97284.22
2023-03-05T01:50:34.506Z,97288.00
2023-03-05T01:53:01.119Z,97286.16
2023-03-05T01:55:27.705Z,97291.13
2023-03-05T01:57:54.300Z,97280.19
2023-03-05T02:00:21.169Z,97279.25
2023-03-05T02:02:47.759Z,97281.66
2023-03-05T02:05:14.346Z,97279.31
2023-03-05T02:07:41.024Z,97277.16
2023-03-05T02:10:07.684Z,97282.16
2023-03-05T02:12:34.278Z,97281.66
2023-03-05T02:15:00.833Z,97281.09
2023-03-05T02:17:28.284Z,97272.25
2023-03-05T02:19:54.868Z,97281.56
2023-03-05T02:22:21.435Z,97276.78
2023-03-05T02:24:48.008Z,97272.56
2023-03-05T02:27:14.606Z,97270.03
2023-03-05T02:29:41.182Z,97273.38
2023-03-05T02:32:07.887Z,97270.09
2023-03-05T02:34:34.711Z,97261.31
2023-03-05T02:37:01.337Z,97266.75
2023-03-05T02:39:27.915Z,97259.31
2023-03-05T02:41:54.486Z,97262.69
2023-03-05T02:44:21.165Z,97263.78
2023-03-05T02:46:47.762Z,97257.84
2023-03-05T02:49:14.347Z,97258.22
2023-03-05T02:51:40.958Z,97263.09
2023-03-05T02:54:07.558Z,97254.47
2023-03-05T02:56:34.149Z,97249.09
2023-03-05T02:59:00.738Z,97243.06
2023-03-05T03:01:27.380Z,97244.44
2023-03-05T03:03:53.963Z,97258.41
2023-03-05T03:06:20.537Z,97246.94
2023-03-05T03:08:47.145Z,97242.75
2023-03-05T03:11:13.718Z,97236.00
2023-03-05T03:13:40.321Z,97242.03
2023-03-05T03:16:06.883Z,97238.56
2023-03-05T03:18:33.516Z,97242.22
2023-03-05T03:21:00.107Z,97239.47
2023-03-05T03:23:26.894Z,97240.53
2023-03-05T03:25:53.493Z,97242.09
2023-03-05T03:28:20.066Z,97237.34
2023-03-05T03:30:46.787Z,97237.06
2023-03-05T03:33:13.356Z,97238.09
2023-03-05T03:35:40.129Z,97235.66
2023-03-05T03:38:06.826Z,97237.13
2023-03-05T03:40:33.475Z,97239.66
2023-03-05T03:43:00.040Z,97239.78
2023-03-05T03:45:26.637Z,97239.25
2023-03-05T03:47:53.199Z,97236.63
2023-03-05T03:50:19.840Z,97236.56
2023-03-05T03:52:46.481Z,97224.13
2023-03-05T03:55:13.041Z,97224.94
2023-03-05T03:57:39.645Z,97230.72
2023-03-05T04:00:06.206Z,97228.88
2023-03-05T04:02:32.806Z,97229.00
2023-03-05T04:04:59.408Z,97221.88
2023-03-05T04:07:25.967Z,97219.78
2023-03-05T04:09:52.570Z,97221.88
2023-03-05T04:12:19.140Z,97219.63
2023-03-05T04:14:45.708Z,97214.19
2023-03-05T04:17:12.313Z,97211.38
2023-03-05T04:19:38.873Z,97217.31
2023-03-05T04:22:05.487Z,97204.50
2023-03-05T04:24:32.042Z,97205.84
2023-03-05T04:26:58.680Z,97207.25
2023-03-05T04:29:25.272Z,97209.00
2023-03-05T04:31:51.850Z,97202.28
2023-03-05T04:34:18.433Z,97200.19
2023-03-05T04:36:45.011Z,97217.63
2023-03-05T04:39:11.801Z,97206.25
2023-03-05T04:41:38.375Z,97206.34
2023-03-05T04:44:04.937Z,97206.59
2023-03-05T04:46:31.590Z,97206.81
2023-03-05T04:48:58.201Z,97203.31
2023-03-05T04:51:24.815Z,97190.31
2023-03-05T04:53:51.391Z,97195.34
2023-03-05T04:56:18.008Z,97189.63
2023-03-05T04:58:44.606Z,97196.53
2023-03-05T05:01:11.198Z,97193.06
2023-03-05T05:03:37.779Z,97198.22
2023-03-05T05:06:04.377Z,97193.03
2023-03-05T05:08:30.959Z,97198.50
2023-03-05T05:10:57.541Z,97191.25
2023-03-05T05:13:24.121Z,97198.63
2023-03-05T05:15:50.696Z,97195.09
2023-03-05T05:18:17.263Z,97194.38
2023-03-05T05:20:43.831Z,97194.63
2023-03-05T05:23:10.395Z,97183.81
2023-03-05T05:25:36.984Z,97180.41
2023-03-05T05:28:03.574Z,97186.38
2023-03-05T05:30:30.315Z,97187.38
2023-03-05T05:32:56.953Z,97187.50
2023-03-05T05:35:23.573Z,97190.25
2023-03-05T05:37:50.169Z,97188.13
2023-03-05T05:40:16.843Z,97183.69
2023-03-05T05:42:43.411Z,97190.66
2023-03-05T05:45:10.036Z,97186.50
2023-03-05T05:47:36.664Z,97190.09
2023-03-05T05:50:03.222Z,97186.06
2023-03-05T05:52:29.813Z,97185.09
2023-03-05T05:54:56.365Z,97194.88
2023-03-05T05:57:22.960Z,97189.69
2023-03-05T05:59:49.902Z,97192.69
2023-03-05T06:02:16.574Z,97198.16
2023-03-05T06:04:43.213Z,97196.19
2023-03-05T06:07:09.908Z,97203.72
2023-03-05T06:09:36.506Z,97199.31
2023-03-05T06:12:03.082Z,97194.19
2023-03-05T06:14:29.726Z,97195.00
2023-03-05T06:16:56.394Z,97204.84
2023-03-05T06:19:23.056Z,97204.69
2023-03-05T06:21:49.625Z,97202.78
2023-03-05T06:24:16.225Z,97204.19
2023-03-05T06:26:42.808Z,97205.56
2023-03-05T06:29:12.644Z,97207.88
2023-03-05T06:31:39.241Z,97201.06
2023-03-05T06:34:05.881Z,97193.88
2023-03-05T06:36:32.480Z,97199.00
2023-03-05T06:38:59.060Z,97204.31
2023-03-05T06:41:25.665Z,97194.75
2023-03-05T06:43:52.247Z,97197.50
2023-03-05T06:46:19.053Z,97201.72
2023-03-05T06:48:45.646Z,97202.03
2023-03-05T06:51:12.250Z,97198.19
2023-03-05T06:53:38.892Z,97197.19
2023-03-05T06:56:05.455Z,97197.41
2023-03-05T06:58:32.048Z,97189.31
2023-03-05T07:00:58.659Z,97195.97
2023-03-05T07:03:25.258Z,97192.81
2023-03-05T07:05:51.834Z,97193.81
2023-03-05T07:08:18.425Z,97185.13
2023-03-05T07:10:44.999Z,97182.25
2023-03-05T07:13:11.570Z,97185.78
2023-03-05T07:15:38.242Z,97190.91
2023-03-05T07:18:04.864Z,97186.66
2023-03-05T07:20:31.457Z,97178.53
2023-03-05T07:22:58.037Z,97181.34
2023-03-05T07:25:24.669Z,97179.25
2023-03-05T07:27:51.259Z,97179.84
2023-03-05T07:30:17.812Z,97180.25
2023-03-05T07:32:44.395Z,97185.97
2023-03-05T07:35:10.950Z,97178.53
2023-03-05T07:37:37.826Z,97183.47
2023-03-05T07:40:04.581Z,97181.03
2023-03-05T07:42:31.285Z,97170.44
2023-03-05T07:44:57.958Z,97168.50
2023-03-05T07:47:24.524Z,97163.03
2023-03-05T07:49:51.116Z,97169.72
2023-03-05T07:52:17.723Z,97162.53
2023-03-05T07:54:44.300Z,97155.72
2023-03-05T07:57:10.904Z,97164.16
2023-03-05T07:59:37.577Z,97156.06
2023-03-05T08:02:04.186Z,97162.84
2023-03-05T08:04:30.793Z,97154.22
2023-03-05T08:06:57.407Z,97151.31
2023-03-05T08:09:23.985Z,97150.69
2023-03-05T08:11:50.545Z,97152.78
2023-03-05T08:14:17.131Z,97150.09
2023-03-05T08:16:44.518Z,97138.88
2023-03-05T08:19:11.888Z,97138.25
2023-03-05T08:21:38.502Z,97140.31
2023-03-05T08:24:05.084Z,97131.31
2023-03-05T08:26:31.705Z,97135.63
2023-03-05T08:28:58.282Z,97121.16
2023-03-05T08:31:24.936Z,97120.59
2023-03-05T08:33:51.519Z,97128.53
2023-03-05T08:36:18.117Z,97123.66
2023-03-05T08:38:44.728Z,97120.69
2023-03-05T08:41:11.329Z,97118.75
2023-03-05T08:43:37.927Z,97112.00
2023-03-05T08:46:04.736Z,97110.03
2023-03-05T08:48:31.307Z,97109.47
2023-03-05T08:50:57.919Z,97115.03
2023-03-05T08:53:24.498Z,97112.56
2023-03-05T08:55:51.267Z,97104.34
2023-03-05T08:58:17.848Z,97108.25
2023-03-05T09:00:44.460Z,97107.28
2023-03-05T09:03:11.067Z,97104.16
2023-03-05T09:05:39.083Z,97101.75
2023-03-05T09:08:07.722Z,97098.00
2023-03-05T09:10:34.361Z,97101.63
2023-03-05T09:13:00.960Z,97091.31
2023-03-05T09:15:27.556Z,97093.06
2023-03-05T09:17:54.155Z,97087.41
2023-03-05T09:20:20.747Z,97086.09
2023-03-05T09:22:47.317Z,97083.66
2023-03-05T09:25:13.921Z,97077.56
2023-03-05T09:27:40.524Z,97082.41
2023-03-05T09:30:07.222Z,97082.28
2023-03-05T09:32:33.803Z,97074.66
2023-03-05T09:35:00.398Z,97079.00
2023-03-05T09:37:27.010Z,97075.88
2023-03-05T09:39:53.675Z,97075.28
2023-03-05T09:42:20.493Z,97073.09
2023-03-05T09:44:47.090Z,97070.56
2023-03-05T09:47:14.707Z,97067.75
2023-03-05T09:49:41.444Z,97060.50
2023-03-05T09:52:08.047Z,97061.69
2023-03-05T09:54:34.638Z,97058.66
2023-03-05T09:57:01.223Z,97047.72
2023-03-05T09:59:27.813Z,97055.78
2023-03-05T10:01:54.386Z,97055.81
2023-03-05T10:04:21.187Z,97054.78
2023-03-05T10:06:47.803Z,97049.75
2023-03-05T10:09:14.365Z,97042.66
2023-03-05T10:11:40.996Z,97038.75
2023-03-05T10:14:07.586Z,97034.31
2023-03-05T10:16:35.225Z,97039.94
2023-03-05T10:19:01.794Z,97032.13
2023-03-05T10:21:28.451Z,97026.97
2023-03-05T10:23:55.072Z,97023.38
2023-03-05T10:26:21.678Z,97025.03
2023-03-05T10:28:48.270Z,97018.97
2023-03-05T10:31:14.912Z,97019.91
2023-03-05T10:33:41.487Z,97013.88
2023-03-05T10:36:08.094Z,97003.97
2023-03-05T10:38:34.679Z,97013.25
2023-03-05T10:41:01.292Z,97001.84
2023-03-05T10:43:27.910Z,96992.22
2023-03-05T10:45:54.572Z,96990.63
2023-03-05T10:48:21.197Z,96987.66
2023-03-05T10:50:47.773Z,96984.41
2023-03-05T10:53:14.401Z,96982.38
2023-03-05T10:55:40.971Z,96981.25
2023-03-05T10:58:07.618Z,96961.72
2023-03-05T11:00:34.175Z,96957.75
2023-03-05T11:03:00.785Z,96957.47
2023-03-05T11:05:27.358Z,96948.88
2023-03-05T11:07:53.951Z,96941.25
2023-03-05T11:10:20.508Z,96940.94
2023-03-05T11:12:47.115Z,96936.16
2023-03-05T11:15:13.719Z,96929.00
2023-03-05T11:17:40.609Z,96923.38
2023-03-05T11:20:07.240Z,96921.56
2023-03-05T11:22:33.812Z,96917.28
2023-03-05T11:25:00.410Z,96916.09
2023-03-05T11:27:27.157Z,96911.59
2023-03-05T11:29:53.757Z,96906.34
2023-03-05T11:32:20.418Z,96900.69
2023-03-05T11:34:47.078Z,96898.69
2023-03-05T11:37:13.677Z,96897.88
2023-03-05T11:39:40.233Z,96892.97
2023-03-05T11:42:06.834Z,96881.19
2023-03-05T11:44:33.414Z,96881.56
2023-03-05T11:46:59.992Z,96874.25
2023-03-05T11:49:26.550Z,96870.09
2023-03-05T11:51:53.163Z,96872.91
2023-03-05T11:54:19.760Z,96867.59
2023-03-05T11:56:46.411Z,96863.66
2023-03-05T11:59:13.000Z,96852.78
2023-03-05T12:01:39.588Z,96853.78
2023-03-05T12:04:06.251Z,96851.13
2023-03-05T12:06:32.825Z,96849.56
2023-03-05T12:08:59.435Z,96846.38
2023-03-05T12:11:26.001Z,96835.28
2023-03-05T12:13:52.594Z,96834.09
2023-03-05T12:16:19.264Z,96834.50
2023-03-05T12:18:45.925Z,96825.03
2023-03-05T12:21:12.518Z,96824.03
2023-03-05T12:23:39.541Z,96821.06
2023-03-05T12:26:06.709Z,96813.56
2023-03-05T12:28:33.275Z,96812.09
2023-03-05T12:30:59.903Z,96801.31
2023-03-05T12:33:28.654Z,96795.75
2023-03-05T12:35:55.250Z,96793.34
2023-03-05T12:38:27.038Z,96783.56
2023-03-05T12:40:53.839Z,96790.94
2023-03-05T12:43:20.411Z,96781.88
2023-03-05T12:45:47.030Z,96780.41
2023-03-05T12:48:13.625Z,96774.47
2023-03-05T12:50:40.216Z,96765.63
2023-03-05T12:53:06.888Z,96762.16
2023-03-05T12:55:33.504Z,96758.75
2023-03-05T12:58:00.160Z,96754.59
2023-03-05T13:00:26.744Z,96753.81
2023-03-05T13:02:53.348Z,96747.94
2023-03-05T13:05:19.932Z,96747.16
2023-03-05T13:07:46.627Z,96750.72
2023-03-05T13:10:16.024Z,96746.13
2023-03-05T13:12:42.711Z,96743.44
2023-03-05T13:15:09.273Z,96743.22
2023-03-05T13:17:35.865Z,96738.13
2023-03-05T13:20:02.440Z,96736.84
2023-03-05T13:22:28.999Z,96736.69
2023-03-05T13:24:55.583Z,96735.16
2023-03-05T13:27:23.187Z,96737.56
2023-03-05T13:29:49.965Z,96733.31
2023-03-05T13:32:16.592Z,96735.25
2023-03-05T13:34:47.500Z,96728.56
2023-03-05T13:37:14.518Z,96727.47
2023-03-05T13:39:41.076Z,96728.78
2023-03-05T13:42:07.648Z,96728.09
2023-03-05T13:44:34.237Z,96728.09
2023-03-05T13:47:03.041Z,96727.06
2023-03-05T13:49:29.649Z,96721.38
2023-03-05T13:51:56.241Z,96714.47
2023-03-05T13:54:22.820Z,96714.19
2023-03-05T13:56:49.409Z,96706.13
2023-03-05T13:59:16.008Z,96707.53
2023-03-05T14:01:42.573Z,96698.50
2023-03-05T14:04:09.243Z,96699.06
2023-03-05T14:06:35.853Z,96704.44
2023-03-05T14:09:02.486Z,96700.81
2023-03-05T14:11:29.097Z,96701.22
2023-03-05T14:13:55.694Z,96688.25
2023-03-05T14:16:22.498Z,96691.63
2023-03-05T14:18:49.117Z,96684.59
2023-03-05T14:21:15.727Z,96682.16
2023-03-05T14:23:42.293Z,96676.28
2023-03-05T14:26:08.932Z,96682.56
2023-03-05T14:28:35.523Z,96669.00
2023-03-05T14:31:02.164Z,96670.97
2023-03-05T14:33:28.765Z,96666.31
2023-03-05T14:35:55.442Z,96667.44
2023-03-05T14:38:22.025Z,96663.50
2023-03-05T14:40:48.626Z,96670.63
2023-03-05T14:43:15.203Z,96664.19
2023-03-05T14:45:41.858Z,96655.41
2023-03-05T14:48:08.464Z,96658.38
2023-03-05T14:50:35.036Z,96658.88
2023-03-05T14:53:01.655Z,96657.47
2023-03-05T14:55:28.423Z,96655.94
2023-03-05T14:57:55.124Z,96656.09
2023-03-05T15:00:21.719Z,96661.31
2023-03-05T15:02:48.376Z,96651.53
2023-03-05T15:05:14.959Z,96653.06
2023-03-05T15:07:41.608Z,96646.25
2023-03-05T15:10:08.291Z,96641.88
2023-03-05T15:12:34.884Z,96649.75
2023-03-05T15:15:01.528Z,96644.22
2023-03-05T15:17:28.125Z,96648.41
2023-03-05T15:19:54.694Z,96648.03
2023-03-05T15:22:21.247Z,96647.91
2023-03-05T15:24:47.845Z,96644.09
2023-03-05T15:27:14.652Z,96636.00
2023-03-05T15:29:41.291Z,96638.03
2023-03-05T15:32:07.931Z,96637.06
2023-03-05T15:34:34.563Z,96641.94
2023-03-05T15:37:01.142Z,96643.91
2023-03-05T15:39:27.779Z,96638.69
2023-03-05T15:41:54.390Z,96650.59
2023-03-05T15:44:20.975Z,96645.13
2023-03-05T15:46:47.670Z,96653.34
2023-03-05T15:49:14.623Z,96653.97
2023-03-05T15:51:41.243Z,96648.78
2023-03-05T15:54:07.843Z,96652.22
2023-03-05T15:56:34.427Z,96652.78
2023-03-05T15:59:00.995Z,96658.78
2023-03-05T16:01:27.629Z,96665.13
2023-03-05T16:03:54.236Z,96654.72
2023-03-05T16:06:20.999Z,96658.84
2023-03-05T16:08:47.617Z,96655.19
2023-03-05T16:11:14.194Z,96662.69
2023-03-05T16:13:40.805Z,96665.53
2023-03-05T16:16:07.464Z,96666.47
2023-03-05T16:18:34.080Z,96660.56
2023-03-05T16:21:00.983Z,96672.13
2023-03-05T16:23:27.582Z,96674.94
2023-03-05T16:25:54.210Z,96676.84
2023-03-05T16:28:20.781Z,96669.09
2023-03-05T16:30:47.378Z,96679.03
2023-03-05T16:33:13.936Z,96681.34
2023-03-05T16:35:40.555Z,96680.91
2023-03-05T16:38:07.139Z,96690.06
2023-03-05T16:40:56.546Z,96680.19
2023-03-05T16:43:20.304Z,96679.94
2023-03-05T16:45:46.962Z,96687.44
2023-03-05T16:48:13.537Z,96679.97
2023-03-05T16:50:40.161Z,96685.13
2023-03-05T16:53:06.755Z,96685.31
2023-03-05T16:55:33.330Z,96684.59
2023-03-05T16:57:59.939Z,96689.72
2023-03-05T17:00:26.517Z,96690.31
2023-03-05T17:02:53.126Z,96695.34
2023-03-05T17:05:19.701Z,96700.41
2023-03-05T17:07:46.304Z,96703.66
2023-03-05T17:10:12.870Z,96701.22
2023-03-05T17:12:39.436Z,96699.84
2023-03-05T17:15:06.047Z,96698.59
2023-03-05T17:17:32.608Z,96700.63
2023-03-05T17:19:59.210Z,96698.75
2023-03-05T17:22:25.774Z,96705.56
2023-03-05T17:24:52.463Z,96702.84
2023-03-05T17:27:19.099Z,96706.78
2023-03-05T17:29:45.690Z,96714.03
2023-03-05T17:32:12.348Z,96714.88
2023-03-05T17:34:39.155Z,96715.09
2023-03-05T17:37:05.722Z,96719.75
2023-03-05T17:39:32.281Z,96716.53
2023-03-05T17:41:58.907Z,96722.41
2023-03-05T17:44:25.498Z,96716.53
2023-03-05T17:46:52.137Z,96718.56
2023-03-05T17:49:18.752Z,96728.91
2023-03-05T17:51:45.355Z,96731.97
2023-03-05T17:54:11.939Z,96730.31
2023-03-05T17:56:38.547Z,96725.13
2023-03-05T17:59:05.114Z,96729.09
2023-03-05T18:01:31.853Z,96731.13
2023-03-05T18:03:58.518Z,96733.97
2023-03-05T18:06:25.245Z,96734.97
2023-03-05T18:08:51.815Z,96728.31
2023-03-05T18:11:18.498Z,96732.13
2023-03-05T18:13:45.081Z,96735.97
2023-03-05T18:16:11.697Z,96730.50
2023-03-05T18:18:38.325Z,96735.72
2023-03-05T18:21:04.924Z,96736.72
2023-03-05T18:23:31.503Z,96743.59
2023-03-05T18:25:58.250Z,96741.34
2023-03-05T18:28:24.839Z,96741.94
2023-03-05T18:30:51.468Z,96733.47
2023-03-05T18:33:18.221Z,96746.69
2023-03-05T18:35:44.925Z,96744.69
2023-03-05T18:38:11.599Z,96750.97
2023-03-05T18:40:38.165Z,96743.03
2023-03-05T18:43:04.776Z,96748.66
2023-03-05T18:45:31.336Z,96743.97
2023-03-05T18:47:57.958Z,96739.53
2023-03-05T18:50:24.553Z,96739.75
2023-03-05T18:52:51.143Z,96746.03
2023-03-05T18:55:18.247Z,96750.09
2023-03-05T18:57:44.829Z,96748.09
2023-03-05T19:00:11.402Z,96741.81
2023-03-05T19:02:38.057Z,96743.78
2023-03-05T19:05:04.711Z,96748.63
2023-03-05T19:07:31.316Z,96748.25
2023-03-05T19:09:59.644Z,96752.44
2023-03-05T19:12:26.421Z,96753.66
2023-03-05T19:14:53.036Z,96757.06
2023-03-05T19:17:19.643Z,96747.91
2023-03-05T19:19:46.226Z,96752.19
2023-03-05T19:22:12.827Z,96746.78
2023-03-05T19:24:39.384Z,96745.53
2023-03-05T19:27:05.950Z,96748.03
2023-03-05T19:29:32.563Z,96754.72
2023-03-05T19:31:59.163Z,96754.03
2023-03-05T19:34:25.775Z,96752.47
2023-03-05T19:36:52.565Z,96750.13
2023-03-05T19:39:19.138Z,96751.28
2023-03-05T19:41:46.045Z,96757.03
2023-03-05T19:44:12.642Z,96758.84
2023-03-05T19:46:39.310Z,96760.19
2023-03-05T19:49:06.159Z,96751.66
2023-03-05T19:51:32.930Z,96752.03
2023-03-05T19:53:59.561Z,96750.97
2023-03-05T19:56:26.176Z,96750.59
2023-03-05T19:58:52.746Z,96750.06
2023-03-05T20:01:19.422Z,96749.16
2023-03-05T20:03:46.017Z,96742.09
2023-03-05T20:06:12.599Z,96743.69
2023-03-05T20:08:39.234Z,96750.09
2023-03-05T20:11:05.798Z,96750.84
2023-03-05T20:13:32.462Z,96744.16
2023-03-05T20:15:59.134Z,96747.56
2023-03-05T20:18:25.797Z,96739.22
2023-03-05T20:20:52.405Z,96744.91
2023-03-05T20:23:18.983Z,96740.75
2023-03-05T20:25:45.533Z,96748.38
2023-03-05T20:28:12.127Z,96739.72
2023-03-05T20:30:38.718Z,96747.38
2023-03-05T20:33:05.311Z,96743.09
2023-03-05T20:35:31.933Z,96743.25
2023-03-05T20:37:58.560Z,96734.31
2023-03-05T20:40:25.137Z,96737.66
2023-03-05T20:42:51.798Z,96737.66
2023-03-05T20:45:18.411Z,96740.63
2023-03-05T20:47:44.989Z,96742.44
2023-03-05T20:50:11.594Z,96738.00
2023-03-05T20:52:38.223Z,96746.00
2023-03-05T20:55:04.832Z,96748.50
2023-03-05T20:57:31.400Z,96744.19
2023-03-05T20:59:57.978Z,96748.84
2023-03-05T21:02:24.557Z,96753.69
2023-03-05T21:04:51.203Z,96754.72
2023-03-05T21:07:17.767Z,96751.06
2023-03-05T21:09:44.351Z,96753.78
2023-03-05T21:12:10.962Z,96749.84
2023-03-05T21:14:37.565Z,96753.25
2023-03-05T21:17:04.165Z,96743.53
2023-03-05T21:19:33.334Z,96736.91
2023-03-05T21:22:00.212Z,96737.72
2023-03-05T21:24:26.794Z,96735.50
2023-03-05T21:26:53.374Z,96732.94
2023-03-05T21:29:19.949Z,96727.06
2023-03-05T21:31:46.691Z,96729.72
2023-03-05T21:34:13.310Z,96726.81
2023-03-05T21:36:40.120Z,96729.41
2023-03-05T21:39:06.692Z,96727.25
2023-03-05T21:41:33.280Z,96728.59
2023-03-05T21:43:59.886Z,96728.75
2023-03-05T21:46:26.443Z,96726.75
2023-03-05T21:48:53.028Z,96730.31
2023-03-05T21:51:19.637Z,96728.09
2023-03-05T21:53:46.404Z,96730.50
2023-03-05T21:56:13.106Z,96728.81
2023-03-05T21:58:39.746Z,96722.13
2023-03-05T22:01:06.362Z,96720.78
2023-03-05T22:03:33.011Z,96721.25
2023-03-05T22:05:59.643Z,96726.94
2023-03-05T22:08:26.199Z,96723.81
2023-03-05T22:10:52.806Z,96715.66
2023-03-05T22:13:19.388Z,96720.59
2023-03-05T22:15:45.940Z,96719.75
2023-03-05T22:18:12.557Z,96716.31
2023-03-05T22:20:39.123Z,96717.84
2023-03-05T22:23:05.701Z,96716.91
2023-03-05T22:25:32.283Z,96715.78
2023-03-05T22:27:58.848Z,96708.22
2023-03-05T22:30:25.460Z,96710.44
2023-03-05T22:32:52.034Z,96713.19
2023-03-05T22:35:19.762Z,96719.94
2023-03-05T22:37:46.376Z,96716.06
2023-03-05T22:40:13.340Z,96722.97
2023-03-05T22:42:39.904Z,96719.50
2023-03-05T22:45:07.493Z,96721.78
2023-03-05T22:47:34.080Z,96718.75
2023-03-05T22:50:01.274Z,96721.94
2023-03-05T22:52:27.867Z,96726.28
2023-03-05T22:54:55.985Z,96722.00
2023-03-05T22:57:22.691Z,96722.03
2023-03-05T22:59:49.239Z,96725.75
2023-03-05T23:02:15.797Z,96714.97
2023-03-05T23:04:42.419Z,96712.19
2023-03-05T23:07:09.051Z,96711.88
2023-03-05T23:09:35.680Z,96710.19
2023-03-05T23:12:02.272Z,96708.75
2023-03-05T23:14:28.891Z,96705.59
2023-03-05T23:16:55.449Z,96711.44
2023-03-05T23:19:22.054Z,96706.25
2023-03-05T23:21:48.626Z,96704.59
2023-03-05T23:24:15.178Z,96701.94
2023-03-05T23:26:41.776Z,96700.34
2023-03-05T23:29:08.523Z,96691.19
2023-03-05T23:31:35.137Z,96698.22
2023-03-05T23:34:01.699Z,96695.09
2023-03-05T23:36:28.269Z,96695.13
2023-03-05T23:38:54.887Z,96689.19
2023-03-05T23:41:21.469Z,96692.09
2023-03-05T23:43:48.109Z,96687.09
2023-03-05T23:46:17.772Z,96677.75
2023-03-05T23:48:44.412Z,96680.91
2023-03-05T23:51:10.976Z,96686.19
2023-03-05T23:53:37.588Z,96692.47
2023-03-05T23:56:05.175Z,96690.13
2023-03-05T23:58:31.760Z,96690.38
